Time,TemperatureF,DewpointF,PressureIn,WindDirection,WindDirectionDegrees,WindSpeedMPH,WindSpeedGustMPH,Humidity,HourlyPrecipIn,Conditions,Clouds,dailyrainin,SoftwareType,DateUTC
2013-03-10 00:03:00,45.7,38.0,29.89,South,180,4.0,-999.0,75,-99.99,,,0.00,weatherlink.com 1.10,2013-03-10 05:03:00,
2013-03-10 00:19:00,45.9,38.0,29.89,South,184,3.0,-999.0,74,-99.99,,,0.00,weatherlink.com 1.10,2013-03-10 05:19:00,
2013-03-10 00:34:00,45.9,38.0,29.88,South,181,3.0,-999.0,74,-99.99,,,0.00,weatherlink.com 1.10,2013-03-10 05:34:00,
2013-03-10 00:49:00,45.8,38.0,29.87,South,190,3.0,-999.0,75,-99.99,,,0.00,weatherlink.com 1.10,2013-03-10 05:49:00,
2013-03-10 01:04:00,45.7,38.0,29.87,South,173,2.0,-999.0,75,-99.99,,,0.00,weatherlink.com 1.10,2013-03-10 06:04:00,
2013-03-10 01:19:00,45.8,39.0,29.87,South,174,5.0,-999.0,76,-99.99,,,0.00,weatherlink.com 1.10,2013-03-10 06:19:00,
2013-03-10 01:34:00,46.5,39.0,29.87,South,189,4.0,-999.0,74,-99.99,,,0.00,weatherlink.com 1.10,2013-03-10 06:34:00,
2013-03-10 01:49:00,46.6,39.0,29.86,ESE,113,2.0,-999.0,74,-99.99,,,0.00,weatherlink.com 1.10,2013-03-10 06:49:00,
2013-03-10 03:04:00,46.5,39.0,29.86,SE,143,5.0,-999.0,74,-99.99,,,0.00,weatherlink.com 1.10,2013-03-10 07:04:00,
2013-03-10 03:19:00,46.4,39.0,29.86,SSE,167,5.0,-999.0,75,-99.99,,,0.00,weatherlink.com 1.10,2013-03-10 07:19:00,
2013-03-10 03:34:00,47.0,40.0,29.85,SSW,192,4.0,-999.0,76,-99.99,,,0.00,weatherlink.com 1.10,2013-03-10 07:34:00,
2013-03-10 03:49:00,47.4,40.0,29.85,South,169,5.0,-999.0,76,-99.99,,,0.00,weatherlink.com 1.10,2013-03-10 07:49:00,
2013-03-10 04:04:00,48.3,42.0,29.85,South,175,6.0,-999.0,78,-99.99,,,0.00,weatherlink.com 1.10,2013-03-10 08:04:00,
2013-03-10 04:19:00,50.0,41.0,29.84,South,180,4.0,-999.0,72,-99.99,,,0.00,weatherlink.com 1.10,2013-03-10 08:19:00,
2013-03-10 04:34:00,51.5,42.0,29.83,South,185,7.0,-999.0,69,-99.99,,,0.00,weatherlink.com 1.10,2013-03-10 08:34:00,
2013-03-10 04:49:00,52.3,42.0,29.83,South,190,11.0,-999.0,67,-99.99,,,0.00,weatherlink.com 1.10,2013-03-10 08:49:00,
2013-03-10 05:04:00,53.0,41.0,29.83,SSW,192,14.0,-999.0,65,-99.99,,,0.00,weatherlink.com 1.10,2013-03-10 09:04:00,
2013-03-10 05:19:00,52.7,42.0,29.83,South,182,8.0,-999.0,66,-99.99,,,0.00,weatherlink.com 1.10,2013-03-10 09:19:00,
2013-03-10 05:34:00,52.3,42.0,29.83,South,186,10.0,-999.0,68,-99.99,,,0.00,weatherlink.com 1.10,2013-03-10 09:34:00,
2013-03-10 05:49:00,52.1,42.0,29.84,SSW,194,6.0,-999.0,69,-99.99,,,0.00,weatherlink.com 1.10,2013-03-10 09:49:00,
2013-03-10 06:04:00,52.4,42.0,29.84,SSW,192,5.0,-999.0,68,-99.99,,,0.00,weatherlink.com 1.10,2013-03-10 10:04:00,
2013-03-10 06:19:00,52.4,42.0,29.84,South,186,7.0,-999.0,69,-99.99,,,0.00,weatherlink.com 1.10,2013-03-10 10:19:00,
2013-03-10 06:34:00,52.7,42.0,29.85,SSW,193,11.0,-999.0,68,-99.99,,,0.00,weatherlink.com 1.10,2013-03-10 10:34:00,
2013-03-10 06:49:00,52.4,42.0,29.85,SSW,196,9.0,-999.0,69,-99.99,,,0.00,weatherlink.com 1.10,2013-03-10 10:49:00,
2013-03-10 07:04:00,52.2,43.0,29.85,SSW,199,9.0,-999.0,70,-99.99,,,0.00,weatherlink.com 1.10,2013-03-10 11:04:00,
2013-03-10 07:19:00,51.9,42.0,29.85,South,188,9.0,-999.0,70,-99.99,,,0.00,weatherlink.com 1.10,2013-03-10 11:19:00,
2013-03-10 07:34:00,52.4,42.0,29.85,South,189,11.0,-999.0,69,-99.99,,,0.00,weatherlink.com 1.10,2013-03-10 11:34:00,
2013-03-10 07:49:00,51.2,42.0,29.85,South,190,6.0,-999.0,72,-99.99,,,0.00,weatherlink.com 1.10,2013-03-10 11:49:00,
2013-03-10 08:04:00,50.6,43.0,29.85,South,182,6.0,-999.0,74,-99.99,,,0.00,weatherlink.com 1.10,2013-03-10 12:04:00,
2013-03-10 08:19:00,50.9,43.0,29.85,South,183,7.0,-999.0,73,-99.99,,,0.00,weatherlink.com 1.10,2013-03-10 12:19:00,
2013-03-10 08:34:00,51.1,42.0,29.85,South,186,8.0,-999.0,72,-99.99,,,0.00,weatherlink.com 1.10,2013-03-10 12:34:00,
2013-03-10 08:49:00,50.9,43.0,29.85,South,182,8.0,-999.0,73,-99.99,,,0.00,weatherlink.com 1.10,2013-03-10 12:49:00,
2013-03-10 09:04:00,51.2,43.0,29.85,South,190,7.0,-999.0,74,-99.99,,,0.00,weatherlink.com 1.10,2013-03-10 13:04:00,
2013-03-10 09:19:00,51.6,43.0,29.85,South,182,9.0,-999.0,73,-99.99,,,0.00,weatherlink.com 1.10,2013-03-10 13:19:00,
2013-03-10 09:34:00,51.7,44.0,29.85,South,184,8.0,-999.0,74,-99.99,,,0.00,weatherlink.com 1.10,2013-03-10 13:34:00,
2013-03-10 09:49:00,52.2,44.0,29.85,South,183,7.0,-999.0,74,-99.99,,,0.00,weatherlink.com 1.10,2013-03-10 13:49:00,
2013-03-10 10:04:00,53.0,45.0,29.85,South,180,8.0,-999.0,74,-99.99,,,0.00,weatherlink.com 1.10,2013-03-10 14:04:00,
2013-03-10 10:19:00,53.3,45.0,29.86,South,180,7.0,-999.0,73,-99.99,,,0.00,weatherlink.com 1.10,2013-03-10 14:19:00,
2013-03-10 10:34:00,54.3,46.0,29.86,South,190,10.0,-999.0,73,-99.99,,,0.00,weatherlink.com 1.10,2013-03-10 14:34:00,
2013-03-10 10:49:00,55.0,46.0,29.85,South,180,8.0,-999.0,73,-99.99,,,0.00,weatherlink.com 1.10,2013-03-10 14:49:00,
2013-03-10 11:04:00,55.7,47.0,29.85,South,177,11.0,-999.0,73,-99.99,,,0.00,weatherlink.com 1.10,2013-03-10 15:04:00,
2013-03-10 11:20:00,57.4,48.0,29.84,South,175,11.0,-999.0,72,-99.99,,,0.00,weatherlink.com 1.10,2013-03-10 15:20:00,
2013-03-10 11:35:00,57.0,48.0,29.84,South,182,9.0,-999.0,73,-99.99,,,0.00,weatherlink.com 1.10,2013-03-10 15:35:00,
2013-03-10 11:50:00,57.9,49.0,29.83,South,177,10.0,-999.0,72,-99.99,,,0.00,weatherlink.com 1.10,2013-03-10 15:50:00,
2013-03-10 12:05:00,58.9,49.0,29.82,South,172,10.0,-999.0,71,-99.99,,,0.00,weatherlink.com 1.10,2013-03-10 16:05:00,
2013-03-10 12:20:00,59.8,49.0,29.82,South,178,11.0,-999.0,68,-99.99,,,0.00,weatherlink.com 1.10,2013-03-10 16:20:00,
2013-03-10 12:35:00,61.1,50.0,29.81,South,183,9.0,-999.0,68,-99.99,,,0.00,weatherlink.com 1.10,2013-03-10 16:35:00,
2013-03-10 12:50:00,62.1,51.0,29.80,South,178,7.0,-999.0,67,-99.99,,,0.00,weatherlink.com 1.10,2013-03-10 16:50:00,
2013-03-10 13:05:00,62.1,51.0,29.81,South,180,13.0,-999.0,67,-99.99,,,0.00,weatherlink.com 1.10,2013-03-10 17:05:00,
2013-03-10 13:20:00,62.5,52.0,29.82,SSW,194,20.0,-999.0,68,-99.99,,,0.00,weatherlink.com 1.10,2013-03-10 17:20:00,
2013-03-10 13:35:00,63.4,52.0,29.82,South,178,14.0,-999.0,66,-99.99,,,0.00,weatherlink.com 1.10,2013-03-10 17:35:00,
2013-03-10 13:50:00,62.5,51.0,29.81,South,181,13.0,-999.0,67,-99.99,,,0.00,weatherlink.com 1.10,2013-03-10 17:50:00,
2013-03-10 14:05:00,63.2,51.0,29.79,South,190,29.0,-999.0,65,-99.99,,,0.00,weatherlink.com 1.10,2013-03-10 18:05:00,
2013-03-10 14:20:00,63.7,50.0,29.78,South,178,17.0,-999.0,62,-99.99,,,0.00,weatherlink.com 1.10,2013-03-10 18:20:00,
2013-03-10 14:35:00,62.9,49.0,29.76,South,187,16.0,-999.0,61,-99.99,,,0.00,weatherlink.com 1.10,2013-03-10 18:35:00,
2013-03-10 14:50:00,64.2,51.0,29.74,South,175,11.0,-999.0,62,-99.99,,,0.00,weatherlink.com 1.10,2013-03-10 18:50:00,
2013-03-10 15:05:00,65.4,51.0,29.73,South,187,12.0,-999.0,59,-99.99,,,0.00,weatherlink.com 1.10,2013-03-10 19:05:00,
2013-03-10 15:20:00,64.8,50.0,29.72,South,178,10.0,-999.0,60,-99.99,,,0.00,weatherlink.com 1.10,2013-03-10 19:20:00,
2013-03-10 15:35:00,64.4,50.0,29.72,South,179,12.0,-999.0,61,-99.99,,,0.00,weatherlink.com 1.10,2013-03-10 19:35:00,
2013-03-10 15:50:00,64.2,51.0,29.73,South,177,11.0,-999.0,63,-99.99,,,0.00,weatherlink.com 1.10,2013-03-10 19:50:00,
2013-03-10 16:05:00,64.2,50.0,29.72,South,175,16.0,-999.0,61,-99.99,,,0.00,weatherlink.com 1.10,2013-03-10 20:05:00,
2013-03-10 16:20:00,64.8,51.0,29.72,South,184,11.0,-999.0,61,-99.99,,,0.00,weatherlink.com 1.10,2013-03-10 20:20:00,
2013-03-10 16:35:00,64.3,52.0,29.71,South,182,8.0,-999.0,65,-99.99,,,0.00,weatherlink.com 1.10,2013-03-10 20:35:00,
2013-03-10 16:50:00,64.0,51.0,29.70,SE,126,4.0,-999.0,64,-99.99,,,0.00,weatherlink.com 1.10,2013-03-10 20:50:00,
2013-03-10 17:05:00,64.0,50.0,29.68,South,173,9.0,-999.0,61,-99.99,,,0.00,weatherlink.com 1.10,2013-03-10 21:05:00,
2013-03-10 17:20:00,63.2,50.0,29.68,SSW,192,8.0,-999.0,63,-99.99,,,0.00,weatherlink.com 1.10,2013-03-10 21:20:00,
2013-03-10 17:35:00,62.4,50.0,29.69,South,183,4.0,-999.0,64,-99.99,,,0.00,weatherlink.com 1.10,2013-03-10 21:35:00,
2013-03-10 17:50:00,62.2,50.0,29.68,ESE,109,8.0,-999.0,64,-99.99,,,0.00,weatherlink.com 1.10,2013-03-10 21:50:00,
2013-03-10 18:05:00,62.3,49.0,29.67,ESE,115,7.0,-999.0,62,-99.99,,,0.00,weatherlink.com 1.10,2013-03-10 22:05:00,
2013-03-10 18:20:00,61.4,49.0,29.67,South,176,8.0,-999.0,64,-99.99,,,0.00,weatherlink.com 1.10,2013-03-10 22:20:00,
2013-03-10 18:35:00,61.6,48.0,29.67,South,189,6.0,-999.0,62,-99.99,,,0.00,weatherlink.com 1.10,2013-03-10 22:35:00,
2013-03-10 18:50:00,61.1,48.0,29.67,SE,126,12.0,-999.0,63,-99.99,,,0.00,weatherlink.com 1.10,2013-03-10 22:50:00,
2013-03-10 19:05:00,60.7,47.0,29.66,South,185,4.0,-999.0,62,-99.99,,,0.00,weatherlink.com 1.10,2013-03-10 23:05:00,
2013-03-10 19:20:00,60.7,46.0,29.67,South,184,6.0,-999.0,58,-99.99,,,0.00,weatherlink.com 1.10,2013-03-10 23:20:00,
2013-03-10 19:35:00,60.7,44.0,29.67,East,84,7.0,-999.0,55,-99.99,,,0.00,weatherlink.com 1.10,2013-03-10 23:35:00,
2013-03-10 19:50:00,60.2,44.0,29.67,SE,146,5.0,-999.0,55,-99.99,,,0.00,weatherlink.com 1.10,2013-03-10 23:50:00,
2013-03-10 20:05:00,58.5,45.0,29.71,South,178,13.0,-999.0,62,-99.99,,,0.00,weatherlink.com 1.10,2013-03-11 00:05:00,
2013-03-10 20:20:00,58.7,46.0,29.71,SSW,202,16.0,-999.0,63,-99.99,,,0.00,weatherlink.com 1.10,2013-03-11 00:20:00,
2013-03-10 20:35:00,57.3,48.0,29.71,South,188,14.0,-999.0,72,-99.99,,,0.01,weatherlink.com 1.10,2013-03-11 00:35:00,
2013-03-10 20:50:00,56.3,48.0,29.71,South,184,11.0,-999.0,75,-99.99,,,0.03,weatherlink.com 1.10,2013-03-11 00:50:00,
2013-03-10 21:05:00,54.9,49.0,29.69,South,173,7.0,-999.0,79,-99.99,,,0.03,weatherlink.com 1.10,2013-03-11 01:05:00,
2013-03-10 21:20:00,54.2,48.0,29.68,South,177,8.0,-999.0,80,-99.99,,,0.03,weatherlink.com 1.10,2013-03-11 01:20:00,
2013-03-10 21:36:00,53.7,48.0,29.69,South,180,5.0,-999.0,81,-99.99,,,0.03,weatherlink.com 1.10,2013-03-11 01:36:00,
2013-03-10 21:51:00,53.1,47.0,29.68,South,175,6.0,-999.0,81,-99.99,,,0.03,weatherlink.com 1.10,2013-03-11 01:51:00,
2013-03-10 22:06:00,52.7,47.0,29.68,South,175,6.0,-999.0,82,-99.99,,,0.03,weatherlink.com 1.10,2013-03-11 02:06:00,
2013-03-10 22:21:00,52.3,47.0,29.67,South,175,5.0,-999.0,83,-99.99,,,0.03,weatherlink.com 1.10,2013-03-11 02:21:00,
2013-03-10 22:36:00,52.7,47.0,29.68,South,174,6.0,-999.0,82,-99.99,,,0.03,weatherlink.com 1.10,2013-03-11 02:36:00,
2013-03-10 22:51:00,53.1,48.0,29.68,SSW,196,7.0,-999.0,82,-99.99,,,0.03,weatherlink.com 1.10,2013-03-11 02:51:00,
2013-03-10 23:06:00,54.0,48.0,29.68,SSW,200,7.0,-999.0,79,-99.99,,,0.03,weatherlink.com 1.10,2013-03-11 03:06:00,
2013-03-10 23:21:00,53.5,48.0,29.68,SSW,194,7.0,-999.0,81,-99.99,,,0.03,weatherlink.com 1.10,2013-03-11 03:21:00,
2013-03-10 23:36:00,53.6,48.0,29.69,SSW,199,10.0,-999.0,81,-99.99,,,0.03,weatherlink.com 1.10,2013-03-11 03:36:00,
2013-03-10 23:51:00,53.2,49.0,29.68,South,188,8.0,-999.0,84,-99.99,,,0.04,weatherlink.com 1.10,2013-03-11 03:51:00,